Time;durP1;ratioP1;P1;durP2;ratioP2;P2;SDS_P1;SDS_P2;PMS_P1;PMS_P2;Temp;Humidity;BMP_temperature;BMP_pressure;BME280_temperature;BME280_humidity;BME280_pressure;Samples;Min_cycle;Max_cycle;Signal;HPM_P1;HPM_P2
2020/12/24 00:00:28;;;;;;;13.87;12.43;;;;;21.80;99521.00;;;;2072389;28;20225;-67
2020/12/24 00:01:28;;;;;;;14.87;12.03;;;;;21.70;99520.00;;;;2079252;28;20218;-67
2020/12/24 00:02:28;;;;;;;12.90;11.30;;;;;21.80;99505.00;;;;2072464;28;20297;-67
2020/12/24 00:03:29;;;;;;;14.27;12.77;;;;;21.80;99516.00;;;;2079098;28;20692;-66
2020/12/24 00:04:30;;;;;;;14.87;12.13;;;;;21.80;99512.00;;;;2063310;28;20721;-67
2020/12/24 00:05:30;;;;;;;12.97;10.90;;;;;21.80;99520.00;;;;2070721;28;21086;-66
2020/12/24 00:06:30;;;;;;;12.87;11.57;;;;;21.70;99513.00;;;;2071900;28;20245;-67
2020/12/24 00:07:31;;;;;;;12.33;11.00;;;;;21.80;99526.00;;;;2079374;28;20656;-67
2020/12/24 00:08:31;;;;;;;12.40;10.90;;;;;21.70;99522.00;;;;2072031;28;20803;-66
2020/12/24 00:09:31;;;;;;;12.53;11.23;;;;;21.70;99509.00;;;;2079533;28;20230;-67
2020/12/24 00:10:32;;;;;;;13.07;10.80;;;;;21.70;99510.00;;;;2071680;28;20349;-67
2020/12/24 00:11:32;;;;;;;11.20;10.00;;;;;21.70;99522.00;;;;2070704;28;20277;-67
2020/12/24 00:12:33;;;;;;;12.53;11.23;;;;;21.70;99511.00;;;;2071112;28;20247;-67
2020/12/24 00:13:34;;;;;;;12.10;10.40;;;;;21.70;99505.00;;;;2079050;28;20221;-67
2020/12/24 00:14:34;;;;;;;12.83;10.60;;;;;21.70;99507.00;;;;2070676;28;20688;-67
2020/12/24 00:15:34;;;;;;;11.47;9.33;;;;;21.70;99518.00;;;;2079593;28;21099;-67
2020/12/24 00:16:35;;;;;;;11.67;8.73;;;;;21.70;99517.00;;;;2071882;28;20214;-67
2020/12/24 00:17:36;;;;;;;10.37;9.30;;;;;21.70;99514.00;;;;2079481;28;20232;-67
2020/12/24 00:18:36;;;;;;;9.50;8.43;;;;;21.70;99508.00;;;;2071895;28;20245;-66
2020/12/24 00:19:36;;;;;;;11.13;9.67;;;;;21.70;99517.00;;;;2079430;28;20455;-66
2020/12/24 00:20:37;;;;;;;10.47;8.60;;;;;21.70;99509.00;;;;2071993;28;20312;-66
2020/12/24 00:21:37;;;;;;;10.37;9.27;;;;;21.70;99511.00;;;;2079701;28;20217;-66
2020/12/24 00:22:38;;;;;;;10.23;8.23;;;;;21.70;99513.00;;;;2069403;28;20765;-66
2020/12/24 00:23:38;;;;;;;10.73;8.90;;;;;21.70;99508.00;;;;2059790;28;20226;-66
2020/12/24 00:24:39;;;;;;;12.90;8.40;;;;;21.70;99509.00;;;;2070860;28;20229;-66
2020/12/24 00:25:39;;;;;;;12.47;9.33;;;;;21.70;99525.00;;;;2079662;28;20211;-66
2020/12/24 00:26:39;;;;;;;10.63;9.10;;;;;21.70;99504.00;;;;2078344;28;20569;-67
2020/12/24 00:27:40;;;;;;;9.50;8.50;;;;;21.60;99505.00;;;;2072361;28;20221;-66
2020/12/24 00:28:40;;;;;;;9.60;7.93;;;;;21.70;99517.00;;;;2070239;28;20218;-66
2020/12/24 00:29:40;;;;;;;8.47;7.60;;;;;21.60;99501.00;;;;2063573;28;20312;-66
2020/12/24 00:30:41;;;;;;;8.73;7.70;;;;;21.70;99504.00;;;;2078596;28;20214;-66
2020/12/24 00:31:41;;;;;;;7.50;6.60;;;;;21.60;99505.00;;;;2072597;28;20842;-66
2020/12/24 00:32:42;;;;;;;8.53;6.67;;;;;21.60;99505.00;;;;2078678;28;20237;-66
2020/12/24 00:33:42;;;;;;;10.97;7.90;;;;;21.60;99504.00;;;;2072724;28;20220;-66
2020/12/24 00:34:42;;;;;;;10.53;7.33;;;;;21.70;99501.00;;;;2078531;28;20262;-66
2020/12/24 00:35:43;;;;;;;7.83;6.73;;;;;21.70;99498.00;;;;2072303;28;20252;-66
2020/12/24 00:36:43;;;;;;;9.07;7.20;;;;;21.60;99485.00;;;;2078410;28;20212;-66
2020/12/24 00:37:43;;;;;;;9.00;6.97;;;;;21.60;99481.00;;;;2072896;28;20217;-66
2020/12/24 00:38:44;;;;;;;8.30;7.00;;;;;21.60;99488.00;;;;2078402;28;20249;-66
2020/12/24 00:39:44;;;;;;;8.00;6.70;;;;;21.60;99494.00;;;;2072837;28;20220;-66
2020/12/24 00:40:44;;;;;;;7.67;6.80;;;;;21.60;99493.00;;;;2078179;28;20295;-66
2020/12/24 00:41:45;;;;;;;7.83;7.07;;;;;21.60;99493.00;;;;2072809;28;20236;-66
2020/12/24 00:42:45;;;;;;;9.57;6.43;;;;;21.60;99492.00;;;;2078118;28;20678;-66
2020/12/24 00:43:45;;;;;;;8.20;6.47;;;;;21.60;99501.00;;;;2073145;28;20697;-66
2020/12/24 00:44:46;;;;;;;7.40;6.13;;;;;21.60;99495.00;;;;2079549;28;20703;-66
2020/12/24 00:45:46;;;;;;;7.00;6.10;;;;;21.60;99498.00;;;;2069427;28;20751;-66
2020/12/24 00:46:47;;;;;;;6.77;6.07;;;;;21.60;99503.00;;;;2056502;28;20687;-67
2020/12/24 00:47:47;;;;;;;6.87;5.47;;;;;21.60;99489.00;;;;2062894;28;20305;-66
2020/12/24 00:48:48;;;;;;;6.50;5.13;;;;;21.60;99496.00;;;;2064799;28;20213;-67
2020/12/24 00:49:48;;;;;;;7.40;5.77;;;;;21.60;99492.00;;;;2068949;28;20368;-66
2020/12/24 00:50:48;;;;;;;8.00;5.70;;;;;21.60;99495.00;;;;2073397;28;20232;-66
2020/12/24 00:51:49;;;;;;;7.53;5.57;;;;;21.60;99487.00;;;;2079591;28;20209;-67
2020/12/24 00:52:49;;;;;;;10.07;6.07;;;;;21.60;99493.00;;;;2079595;28;20209;-66
2020/12/24 00:53:49;;;;;;;8.40;5.77;;;;;21.60;99490.00;;;;2079670;28;20240;-66
2020/12/24 00:54:50;;;;;;;8.30;5.33;;;;;21.60;99485.00;;;;2077228;28;20671;-66
2020/12/24 00:55:50;;;;;;;12.20;5.17;;;;;21.60;99489.00;;;;2073741;28;20221;-66
2020/12/24 00:56:50;;;;;;;8.30;5.63;;;;;21.60;99491.00;;;;2077378;28;20295;-67
2020/12/24 00:57:51;;;;;;;7.33;4.97;;;;;21.60;99476.00;;;;2073762;28;20258;-66
2020/12/24 00:58:51;;;;;;;6.80;4.97;;;;;21.60;99485.00;;;;2077340;28;20214;-66
2020/12/24 00:59:51;;;;;;;9.67;5.00;;;;;21.50;99475.00;;;;2065138;28;20201;-66
2020/12/24 01:00:52;;;;;;;8.37;5.53;;;;;21.60;99494.00;;;;2068282;28;20304;-66
2020/12/24 01:01:52;;;;;;;7.30;5.13;;;;;21.60;99482.00;;;;2065272;28;20249;-66
2020/12/24 01:02:52;;;;;;;6.17;4.17;;;;;21.60;99487.00;;;;2070971;28;20588;-66
2020/12/24 01:03:53;;;;;;;8.00;5.13;;;;;21.50;99474.00;;;;2073938;28;20218;-66
2020/12/24 01:04:53;;;;;;;7.23;4.43;;;;;21.60;99479.00;;;;2079537;28;20220;-66
2020/12/24 01:05:53;;;;;;;5.10;4.20;;;;;21.60;99480.00;;;;2077111;28;20249;-66
2020/12/24 01:06:54;;;;;;;8.17;5.80;;;;;21.50;99487.00;;;;2074457;28;20219;-67
2020/12/24 01:07:54;;;;;;;7.57;5.93;;;;;21.40;99478.00;;;;2078627;28;20229;-67
2020/12/24 01:08:54;;;;;;;7.90;5.77;;;;;21.40;99474.00;;;;2075729;28;20252;-66
2020/12/24 01:09:55;;;;;;;5.63;4.90;;;;;21.50;99473.00;;;;2078464;28;20592;-66
2020/12/24 01:10:55;;;;;;;7.50;5.43;;;;;21.50;99488.00;;;;2075907;28;20216;-66
2020/12/24 01:11:55;;;;;;;5.87;5.27;;;;;21.50;99480.00;;;;2078302;28;20303;-66
2020/12/24 01:12:56;;;;;;;6.23;5.50;;;;;21.50;99475.00;;;;2076167;28;20307;-65
2020/12/24 01:13:56;;;;;;;4.97;4.43;;;;;21.60;99471.00;;;;2078135;28;20228;-66
2020/12/24 01:14:56;;;;;;;7.67;6.00;;;;;21.60;99475.00;;;;2075870;28;20668;-66
2020/12/24 01:15:57;;;;;;;8.00;4.97;;;;;21.60;99475.00;;;;2078008;28;20237;-66
2020/12/24 01:16:57;;;;;;;7.70;4.13;;;;;21.60;99481.00;;;;2076115;28;20231;-66
2020/12/24 01:17:58;;;;;;;5.83;4.70;;;;;21.60;99476.00;;;;2069204;28;20719;-66
2020/12/24 01:18:59;;;;;;;6.40;4.30;;;;;21.60;99479.00;;;;2067619;28;20224;-67
2020/12/24 01:19:59;;;;;;;4.97;4.00;;;;;21.60;99473.00;;;;2077566;28;20225;-65
2020/12/24 01:20:59;;;;;;;6.40;3.97;;;;;21.60;99474.00;;;;2076353;28;20252;-66
2020/12/24 01:22:00;;;;;;;5.73;4.47;;;;;21.60;99469.00;;;;2081119;28;20228;-66
2020/12/24 01:23:00;;;;;;;7.00;4.23;;;;;21.60;99468.00;;;;2072262;28;20225;-66
2020/12/24 01:24:00;;;;;;;4.77;3.80;;;;;21.60;99459.00;;;;2072164;28;20252;-66
2020/12/24 01:25:01;;;;;;;5.73;3.90;;;;;21.50;99460.00;;;;2068479;28;20704;-66
2020/12/24 01:26:01;;;;;;;5.30;4.20;;;;;21.50;99465.00;;;;2068051;28;20706;-66
2020/12/24 01:27:02;;;;;;;7.27;4.63;;;;;21.50;99471.00;;;;2068562;28;20467;-66
2020/12/24 01:28:02;;;;;;;5.37;3.90;;;;;21.50;99466.00;;;;2067955;28;20225;-65
2020/12/24 01:29:02;;;;;;;6.43;4.67;;;;;21.60;99468.00;;;;2068345;28;21164;-66
2020/12/24 01:30:04;;;;;;;7.10;3.93;;;;;21.60;99467.00;;;;2068013;28;20289;-65
2020/12/24 01:31:04;;;;;;;7.82;3.47;;;;;21.60;99474.00;;;;2076805;28;20242;-66
2020/12/24 01:32:05;;;;;;;5.93;4.27;;;;;21.60;99468.00;;;;2068384;28;20226;-66
2020/12/24 01:33:05;;;;;;;6.63;3.90;;;;;21.50;99473.00;;;;2068203;28;20226;-66
2020/12/24 01:34:05;;;;;;;4.10;3.17;;;;;21.60;99463.00;;;;2068509;28;20237;-67
2020/12/24 01:35:06;;;;;;;4.20;3.40;;;;;21.50;99462.00;;;;2067898;28;20222;-66
2020/12/24 01:36:06;;;;;;;5.97;3.83;;;;;21.50;99464.00;;;;2077170;28;20251;-66
2020/12/24 01:37:06;;;;;;;6.67;3.50;;;;;21.60;99470.00;;;;2076519;28;20700;-66
2020/12/24 01:38:07;;;;;;;6.20;3.50;;;;;21.60;99462.00;;;;2077335;28;20727;-66
2020/12/24 01:39:07;;;;;;;6.70;3.47;;;;;21.50;99468.00;;;;2076544;28;20741;-66
2020/12/24 01:40:07;;;;;;;5.50;3.57;;;;;21.50;99459.00;;;;2068502;28;20728;-67
2020/12/24 01:41:08;;;;;;;4.00;3.10;;;;;21.50;99474.00;;;;2067681;28;20254;-66
2020/12/24 01:42:08;;;;;;;5.20;3.50;;;;;21.50;99463.00;;;;2068712;28;20797;-66
2020/12/24 01:43:09;;;;;;;7.07;3.67;;;;;21.50;99462.00;;;;2072308;28;20221;-66
2020/12/24 01:44:09;;;;;;;4.67;3.80;;;;;21.50;99466.00;;;;2077561;28;20220;-66
2020/12/24 01:45:09;;;;;;;4.70;3.23;;;;;21.50;99470.00;;;;2080895;28;20582;-66
2020/12/24 01:46:10;;;;;;;5.60;3.57;;;;;21.50;99467.00;;;;2076163;28;20677;-66
2020/12/24 01:47:10;;;;;;;7.80;3.40;;;;;21.50;99464.00;;;;2058660;28;20220;-66
2020/12/24 01:48:10;;;;;;;6.00;3.23;;;;;21.50;99463.00;;;;2072074;28;20210;-66
2020/12/24 01:49:10;;;;;;;5.77;2.90;;;;;21.20;99468.00;;;;2077750;28;20434;-66
2020/12/24 01:50:11;;;;;;;5.10;3.03;;;;;21.50;99464.00;;;;2067115;28;20238;-66
2020/12/24 01:51:12;;;;;;;4.67;2.73;;;;;21.50;99468.00;;;;2060861;28;20222;-67
2020/12/24 01:52:36;;;;;;;4.00;2.85;;;;;21.50;99474.00;;;;2055984;28;20227;-66
2020/12/24 01:53:37;;;;;;;5.80;3.05;;;;;21.50;99470.00;;;;2052255;28;20247;-67
2020/12/24 01:54:37;;;;;;;5.90;3.10;;;;;21.50;99469.00;;;;2063463;28;20222;-66
2020/12/24 01:55:37;;;;;;;4.30;2.77;;;;;21.50;99468.00;;;;2064518;28;20707;-66
2020/12/24 01:56:37;;;;;;;4.13;2.93;;;;;21.50;99469.00;;;;2080266;28;20684;-66
2020/12/24 01:57:38;;;;;;;5.20;2.70;;;;;21.50;99472.00;;;;2071963;28;20895;-67
2020/12/24 01:58:38;;;;;;;5.10;3.27;;;;;21.50;99465.00;;;;2072039;28;20750;-66
2020/12/24 01:59:39;;;;;;;3.87;2.90;;;;;21.50;99470.00;;;;2063874;28;20257;-66
2020/12/24 02:00:39;;;;;;;4.83;3.10;;;;;21.50;99468.00;;;;2048285;28;20222;-67
2020/12/24 02:01:39;;;;;;;5.33;2.70;;;;;21.50;99468.00;;;;2058445;28;20229;-66
2020/12/24 02:02:40;;;;;;;4.13;2.53;;;;;21.50;99473.00;;;;2072219;28;20231;-66
2020/12/24 02:03:40;;;;;;;5.30;2.77;;;;;21.40;99458.00;;;;2067002;28;20226;-66
2020/12/24 02:04:40;;;;;;;6.10;3.07;;;;;21.40;99470.00;;;;2064792;28;20665;-66
2020/12/24 02:05:41;;;;;;;4.10;2.70;;;;;21.40;99461.00;;;;2079788;28;20766;-66
2020/12/24 02:06:42;;;;;;;4.37;2.90;;;;;21.40;99470.00;;;;2064915;28;20831;-66
2020/12/24 02:07:42;;;;;;;4.23;2.80;;;;;21.40;99462.00;;;;2070673;28;20704;-66
2020/12/24 02:08:42;;;;;;;3.73;2.43;;;;;21.40;99461.00;;;;2057024;28;20218;-67
2020/12/24 02:09:48;;;;;;;3.63;2.57;;;;;21.40;99461.00;;;;2054673;28;20258;-67
2020/12/24 02:10:49;;;;;;;6.47;2.63;;;;;21.40;99466.00;;;;2066625;28;20221;-66
2020/12/24 02:11:49;;;;;;;4.93;2.40;;;;;21.40;99465.00;;;;2061925;28;20214;-66
2020/12/24 02:12:49;;;;;;;4.33;2.50;;;;;21.40;99465.00;;;;2050108;28;20216;-66
2020/12/24 02:13:50;;;;;;;3.47;2.60;;;;;21.40;99469.00;;;;2069913;28;20309;-66
2020/12/24 02:14:50;;;;;;;5.00;2.83;;;;;21.40;99468.00;;;;2074544;28;20209;-66
2020/12/24 02:15:50;;;;;;;4.40;2.63;;;;;21.40;99464.00;;;;2078518;28;20216;-67
2020/12/24 02:16:51;;;;;;;4.60;2.50;;;;;21.40;99470.00;;;;2074814;28;20253;-66
2020/12/24 02:17:51;;;;;;;4.37;2.40;;;;;21.40;99463.00;;;;2078458;28;20242;-66
2020/12/24 02:18:51;;;;;;;6.07;2.87;;;;;21.40;99461.00;;;;2065298;28;20218;-66
2020/12/24 02:19:52;;;;;;;2.83;2.03;;;;;21.40;99458.00;;;;2069621;28;20214;-66
2020/12/24 02:20:52;;;;;;;3.93;2.47;;;;;21.40;99463.00;;;;2074734;28;20242;-66
2020/12/24 02:21:52;;;;;;;5.60;2.60;;;;;21.40;99463.00;;;;2077790;28;20220;-66
2020/12/24 02:22:53;;;;;;;2.97;2.07;;;;;21.40;99461.00;;;;2066393;28;20214;-66
2020/12/24 02:23:53;;;;;;;4.07;2.40;;;;;21.40;99463.00;;;;2069521;28;20275;-66
2020/12/24 02:24:53;;;;;;;4.53;2.17;;;;;21.40;99465.00;;;;2074930;28;20209;-66
2020/12/24 02:25:54;;;;;;;4.60;2.30;;;;;21.40;99459.00;;;;2076879;28;20304;-66
2020/12/24 02:26:54;;;;;;;3.17;2.40;;;;;21.40;99456.00;;;;2063248;28;20210;-66
2020/12/24 02:27:55;;;;;;;3.90;2.27;;;;;21.40;99456.00;;;;2063542;28;20211;-66
2020/12/24 02:28:55;;;;;;;5.17;2.30;;;;;21.40;99452.00;;;;2071450;28;20270;-66
2020/12/24 02:29:55;;;;;;;2.93;2.10;;;;;21.40;99450.00;;;;2060484;28;20219;-67
2020/12/24 02:30:56;;;;;;;4.10;2.37;;;;;21.40;99458.00;;;;2066219;28;20740;-66
2020/12/24 02:31:57;;;;;;;3.90;2.50;;;;;21.40;99455.00;;;;2068562;28;20242;-66
2020/12/24 02:32:57;;;;;;;4.23;2.47;;;;;21.40;99455.00;;;;2066437;28;20228;-66
2020/12/24 02:33:57;;;;;;;2.27;1.60;;;;;21.30;99454.00;;;;2077372;28;20210;-66
2020/12/24 02:34:58;;;;;;;5.23;2.30;;;;;21.40;99446.00;;;;2066856;28;20216;-66
2020/12/24 02:35:58;;;;;;;3.13;2.07;;;;;21.30;99454.00;;;;2068744;28;20237;-66
2020/12/24 02:36:58;;;;;;;3.30;2.10;;;;;21.30;99449.00;;;;2075572;28;20200;-66
2020/12/24 02:38:00;;;;;;;4.17;2.30;;;;;21.30;99453.00;;;;2068508;28;20325;-66
2020/12/24 02:39:00;;;;;;;3.92;2.20;;;;;21.30;99453.00;;;;2063812;28;20234;-66
2020/12/24 02:40:00;;;;;;;4.03;2.00;;;;;21.30;99442.00;;;;2071722;28;20218;-66
2020/12/24 02:41:00;;;;;;;3.53;2.03;;;;;21.30;99442.00;;;;2076026;28;20217;-66
2020/12/24 02:42:01;;;;;;;2.90;2.10;;;;;21.30;99452.00;;;;2076443;28;20223;-66
2020/12/24 02:43:01;;;;;;;3.40;1.93;;;;;21.30;99447.00;;;;2075957;28;20233;-66
2020/12/24 02:44:02;;;;;;;5.80;2.33;;;;;21.30;99450.00;;;;2076837;28;20328;-67
2020/12/24 02:45:03;;;;;;;4.63;2.40;;;;;21.30;99454.00;;;;2075964;28;20217;-66
2020/12/24 02:46:04;;;;;;;3.67;2.30;;;;;21.30;99440.00;;;;2076211;28;20267;-66
2020/12/24 02:47:04;;;;;;;3.17;2.47;;;;;21.30;99448.00;;;;2076457;28;20310;-66
2020/12/24 02:48:04;;;;;;;2.60;2.20;;;;;21.30;99441.00;;;;2076277;28;20236;-66
2020/12/24 02:49:05;;;;;;;3.80;2.10;;;;;21.30;99445.00;;;;2067624;28;20240;-66
2020/12/24 02:50:07;;;;;;;4.40;1.63;;;;;21.30;99454.00;;;;2067542;28;20272;-66
2020/12/24 02:51:08;;;;;;;3.75;1.92;;;;;21.30;99449.00;;;;2068117;28;20298;-66
2020/12/24 02:52:08;;;;;;;3.10;1.73;;;;;21.30;99445.00;;;;2075806;28;20701;-66
2020/12/24 02:53:09;;;;;;;4.77;2.40;;;;;21.30;99443.00;;;;2077042;28;20227;-66
2020/12/24 02:54:09;;;;;;;3.87;2.10;;;;;21.30;99447.00;;;;2075695;28;20225;-66
2020/12/24 02:55:09;;;;;;;4.17;1.60;;;;;21.30;99450.00;;;;2068294;28;20221;-66
2020/12/24 02:56:10;;;;;;;2.57;1.63;;;;;21.30;99450.00;;;;2069679;28;20232;-66
2020/12/24 02:57:10;;;;;;;3.47;2.07;;;;;21.30;99442.00;;;;2080346;28;20228;-66
2020/12/24 02:58:10;;;;;;;3.67;1.73;;;;;21.30;99446.00;;;;2080405;28;20696;-66
2020/12/24 02:59:11;;;;;;;3.53;1.80;;;;;21.30;99459.00;;;;2080339;28;20275;-66
2020/12/24 03:00:11;;;;;;;2.40;1.47;;;;;21.30;99443.00;;;;2075183;28;20220;-66
2020/12/24 03:01:11;;;;;;;3.47;1.40;;;;;21.30;99444.00;;;;2060211;28;20223;-66
2020/12/24 03:02:12;;;;;;;3.73;1.97;;;;;21.30;99455.00;;;;2058446;28;20302;-66
2020/12/24 03:03:12;;;;;;;4.00;2.00;;;;;21.30;99440.00;;;;2077141;28;20221;-66
2020/12/24 03:04:12;;;;;;;2.20;1.50;;;;;21.30;99449.00;;;;2075176;28;20588;-66
2020/12/24 03:05:13;;;;;;;3.60;1.90;;;;;21.30;99454.00;;;;2068351;28;20678;-66
2020/12/24 03:06:13;;;;;;;3.87;1.93;;;;;21.30;99458.00;;;;2066437;28;20614;-66
2020/12/24 03:07:13;;;;;;;3.67;1.83;;;;;21.30;99464.00;;;;2077393;28;20690;-66
2020/12/24 03:08:14;;;;;;;2.90;1.70;;;;;21.30;99456.00;;;;2075106;28;20224;-66
2020/12/24 03:09:14;;;;;;;4.07;1.70;;;;;21.20;99454.00;;;;2077569;28;20299;-66
2020/12/24 03:10:14;;;;;;;3.57;1.53;;;;;21.30;99463.00;;;;2074594;28;20222;-67
2020/12/24 03:11:15;;;;;;;5.20;1.93;;;;;21.30;99458.00;;;;2077481;28;20212;-67
2020/12/24 03:12:15;;;;;;;2.67;1.50;;;;;21.30;99462.00;;;;2066015;28;20309;-66
2020/12/24 03:13:15;;;;;;;2.70;1.43;;;;;21.30;99459.00;;;;2069108;28;20227;-66
2020/12/24 03:14:17;;;;;;;3.70;1.93;;;;;21.30;99471.00;;;;2066072;28;20226;-66
2020/12/24 03:15:17;;;;;;;2.30;1.67;;;;;21.30;99455.00;;;;2069239;28;20226;-66
2020/12/24 03:16:18;;;;;;;3.83;1.70;;;;;21.30;99466.00;;;;2065684;28;20221;-66
2020/12/24 03:17:19;;;;;;;3.17;1.50;;;;;21.30;99454.00;;;;2069456;28;20217;-67
2020/12/24 03:18:19;;;;;;;3.40;1.63;;;;;21.20;99470.00;;;;2074178;28;20218;-66
2020/12/24 03:19:19;;;;;;;6.60;1.90;;;;;21.20;99467.00;;;;2078173;28;20458;-66
2020/12/24 03:20:20;;;;;;;3.93;2.00;;;;;21.20;99454.00;;;;2074099;28;20223;-66
2020/12/24 03:21:23;;;;;;;3.50;2.17;;;;;21.30;99455.00;;;;2069340;28;20312;-66
2020/12/24 03:22:23;;;;;;;2.95;1.60;;;;;21.30;99455.00;;;;2056931;28;20767;-66
2020/12/24 03:23:23;;;;;;;3.47;1.40;;;;;21.20;99449.00;;;;2070070;28;20256;-66
2020/12/24 03:24:24;;;;;;;4.17;1.97;;;;;21.20;99450.00;;;;2073606;28;20644;-66
2020/12/24 03:25:24;;;;;;;4.00;1.50;;;;;21.20;99454.00;;;;2078435;28;20217;-66
2020/12/24 03:26:24;;;;;;;3.53;1.87;;;;;21.20;99450.00;;;;2078006;28;20267;-66
2020/12/24 03:27:25;;;;;;;4.00;1.60;;;;;21.20;99456.00;;;;2071443;28;20268;-67
2020/12/24 03:28:25;;;;;;;4.50;1.80;;;;;21.20;99453.00;;;;2071471;28;20232;-66
2020/12/24 03:29:25;;;;;;;3.60;1.73;;;;;21.30;99451.00;;;;2071384;28;20229;-67
2020/12/24 03:30:25;;;;;;;3.33;1.30;;;;;21.20;99455.00;;;;2071335;28;20280;-66
2020/12/24 03:31:26;;;;;;;3.10;1.70;;;;;21.20;99450.00;;;;2073128;28;20222;-66
2020/12/24 03:32:26;;;;;;;3.83;1.80;;;;;21.20;99458.00;;;;2079003;28;20707;-66
2020/12/24 03:33:27;;;;;;;3.40;1.60;;;;;21.20;99455.00;;;;2061563;28;20221;-66
2020/12/24 03:34:27;;;;;;;3.00;1.33;;;;;21.20;99443.00;;;;2070467;28;20221;-66
2020/12/24 03:35:27;;;;;;;3.80;1.60;;;;;21.20;99457.00;;;;2072972;28;20307;-66
2020/12/24 03:36:28;;;;;;;3.30;1.53;;;;;21.20;99445.00;;;;2079207;28;20741;-70
2020/12/24 03:37:28;;;;;;;3.00;1.30;;;;;21.20;99448.00;;;;2072732;28;20228;-67
2020/12/24 03:38:28;;;;;;;3.33;1.40;;;;;21.20;99445.00;;;;2077062;28;20217;-66
2020/12/24 03:39:29;;;;;;;3.50;1.80;;;;;21.20;99439.00;;;;2072771;28;20214;-66
2020/12/24 03:40:29;;;;;;;3.90;1.97;;;;;21.20;99457.00;;;;2070618;28;20751;-66
2020/12/24 03:41:29;;;;;;;3.00;1.37;;;;;21.20;99449.00;;;;2063651;28;20261;-66
2020/12/24 03:42:30;;;;;;;3.30;1.87;;;;;21.20;99450.00;;;;2079497;28;20224;-66
2020/12/24 03:43:30;;;;;;;3.30;1.47;;;;;21.20;99449.00;;;;2063704;28;20222;-66
2020/12/24 03:44:31;;;;;;;3.53;1.53;;;;;21.20;99446.00;;;;2070758;28;20218;-66
2020/12/24 03:45:31;;;;;;;3.70;1.67;;;;;21.20;99446.00;;;;2063688;28;20240;-66
2020/12/24 03:46:33;;;;;;;4.47;1.90;;;;;21.20;99450.00;;;;2071022;28;20717;-66
2020/12/24 03:47:34;;;;;;;3.78;1.52;;;;;21.20;99449.00;;;;2072076;28;20696;-66
2020/12/24 03:48:34;;;;;;;3.50;1.60;;;;;21.20;99442.00;;;;2071304;28;20211;-66
2020/12/24 03:49:34;;;;;;;4.37;1.63;;;;;21.20;99450.00;;;;2062975;28;20280;-66
2020/12/24 03:50:35;;;;;;;3.50;1.23;;;;;21.20;99447.00;;;;2071235;28;20221;-66
2020/12/24 03:51:35;;;;;;;2.63;1.43;;;;;21.20;99441.00;;;;2071112;28;20221;-66
2020/12/24 03:52:35;;;;;;;3.33;1.83;;;;;21.20;99450.00;;;;2063029;28;20261;-66
2020/12/24 03:53:36;;;;;;;4.53;1.60;;;;;21.20;99449.00;;;;2071340;28;20229;-66
2020/12/24 03:54:36;;;;;;;3.27;1.63;;;;;21.20;99446.00;;;;2079510;28;20312;-66
2020/12/24 03:55:36;;;;;;;3.07;1.30;;;;;21.20;99450.00;;;;2072057;28;20208;-66
2020/12/24 03:56:37;;;;;;;3.40;1.43;;;;;21.20;99435.00;;;;2079595;28;20213;-66
2020/12/24 03:57:37;;;;;;;3.33;1.60;;;;;21.20;99437.00;;;;2079716;28;20217;-66
2020/12/24 03:58:38;;;;;;;3.73;1.40;;;;;21.20;99430.00;;;;2079861;28;20706;-66
2020/12/24 03:59:38;;;;;;;3.50;1.47;;;;;21.20;99440.00;;;;2079401;28;20754;-66
2020/12/24 04:00:39;;;;;;;2.50;1.30;;;;;21.20;99428.00;;;;2072110;28;20567;-66
2020/12/24 04:01:40;;;;;;;3.55;1.58;;;;;21.20;99434.00;;;;2070412;28;20312;-66
2020/12/24 04:02:40;;;;;;;3.60;1.30;;;;;21.20;99441.00;;;;2063935;28;20212;-65
2020/12/24 04:03:40;;;;;;;2.30;1.20;;;;;21.20;99438.00;;;;2078799;28;20225;-66
2020/12/24 04:04:41;;;;;;;2.57;1.33;;;;;21.20;99432.00;;;;2072456;28;20275;-66
2020/12/24 04:05:41;;;;;;;4.00;1.93;;;;;21.20;99427.00;;;;2078863;28;20213;-66
2020/12/24 04:06:41;;;;;;;2.67;1.47;;;;;21.20;99431.00;;;;2063929;28;20263;-66
2020/12/24 04:07:42;;;;;;;3.13;1.67;;;;;21.20;99437.00;;;;2070136;28;20242;-66
2020/12/24 04:08:42;;;;;;;4.13;1.83;;;;;21.20;99436.00;;;;2072621;28;20287;-66
2020/12/24 04:09:42;;;;;;;3.73;1.27;;;;;21.10;99433.00;;;;2078686;28;20220;-66
2020/12/24 04:10:43;;;;;;;2.57;1.37;;;;;21.10;99430.00;;;;2072621;28;20214;-67
2020/12/24 04:11:43;;;;;;;3.47;1.50;;;;;21.10;99434.00;;;;2078666;28;20249;-66
2020/12/24 04:12:43;;;;;;;3.47;1.70;;;;;21.10;99431.00;;;;2064150;28;20219;-66
2020/12/24 04:13:44;;;;;;;3.33;1.50;;;;;21.10;99438.00;;;;2069895;28;20219;-66
2020/12/24 04:14:44;;;;;;;3.13;1.43;;;;;21.10;99433.00;;;;2063963;28;20316;-66
2020/12/24 04:15:44;;;;;;;2.50;1.17;;;;;21.10;99437.00;;;;2078474;28;20216;-66
2020/12/24 04:16:45;;;;;;;2.90;1.20;;;;;21.10;99442.00;;;;2073125;28;20205;-66
2020/12/24 04:17:45;;;;;;;3.30;1.60;;;;;21.10;99438.00;;;;2078459;28;20231;-66
2020/12/24 04:18:45;;;;;;;2.17;1.20;;;;;21.10;99439.00;;;;2073229;28;20244;-66
2020/12/24 04:19:46;;;;;;;4.73;1.60;;;;;21.10;99452.00;;;;2078329;28;20257;-66
2020/12/24 04:20:46;;;;;;;3.30;1.50;;;;;21.10;99443.00;;;;2073149;28;20212;-66
2020/12/24 04:21:46;;;;;;;3.20;1.70;;;;;21.10;99450.00;;;;2078200;28;20233;-66
2020/12/24 04:22:46;;;;;;;2.30;1.00;;;;;21.10;99447.00;;;;2073330;28;20223;-66
2020/12/24 04:23:47;;;;;;;4.57;1.37;;;;;21.10;99446.00;;;;2078124;28;20207;-66
2020/12/24 04:24:47;;;;;;;2.13;1.40;;;;;21.10;99433.00;;;;2073283;28;20239;-66
2020/12/24 04:25:48;;;;;;;3.50;1.27;;;;;21.10;99442.00;;;;2078015;28;20824;-66
2020/12/24 04:26:48;;;;;;;3.90;1.87;;;;;21.10;99449.00;;;;2079604;28;20227;-69
2020/12/24 04:27:48;;;;;;;2.33;1.13;;;;;21.10;99447.00;;;;2079721;28;20263;-69
2020/12/24 04:28:49;;;;;;;3.03;1.27;;;;;21.10;99430.00;;;;2079869;28;20715;-69
2020/12/24 04:29:49;;;;;;;3.73;1.30;;;;;21.10;99449.00;;;;2068990;28;20232;-69
2020/12/24 04:30:50;;;;;;;2.90;1.20;;;;;21.10;99439.00;;;;2064980;28;20252;-69
2020/12/24 04:31:50;;;;;;;2.57;1.20;;;;;21.10;99430.00;;;;2077600;28;20227;-69
2020/12/24 04:32:50;;;;;;;2.33;1.10;;;;;21.10;99441.00;;;;2057077;28;20226;-69
2020/12/24 04:33:51;;;;;;;2.50;1.23;;;;;21.10;99449.00;;;;2060205;28;20224;-69
2020/12/24 04:34:51;;;;;;;3.07;1.30;;;;;21.10;99447.00;;;;2065052;28;20214;-69
2020/12/24 04:35:54;;;;;;;2.00;1.00;;;;;21.10;99451.00;;;;2071144;28;20232;-69
2020/12/24 04:36:54;;;;;;;4.20;1.15;;;;;21.10;99452.00;;;;2070974;28;20698;-69
2020/12/24 04:37:55;;;;;;;2.60;1.43;;;;;21.10;99444.00;;;;2071062;28;20236;-69
2020/12/24 04:38:55;;;;;;;3.13;1.37;;;;;21.10;99451.00;;;;2074352;28;20220;-70
2020/12/24 04:39:55;;;;;;;3.43;1.50;;;;;21.10;99446.00;;;;2078698;28;20238;-69
2020/12/24 04:40:59;;;;;;;2.47;1.30;;;;;21.00;99455.00;;;;2068162;28;20225;-69
2020/12/24 04:41:59;;;;;;;2.75;1.10;;;;;21.00;99453.00;;;;2066791;28;20219;-68
2020/12/24 04:43:00;;;;;;;3.20;1.37;;;;;21.00;99442.00;;;;2069373;28;20206;-68
2020/12/24 04:44:00;;;;;;;2.20;1.30;;;;;21.00;99448.00;;;;2064827;28;20221;-69
2020/12/24 04:45:00;;;;;;;4.43;1.30;;;;;21.00;99438.00;;;;2064218;28;20229;-69
2020/12/24 04:46:01;;;;;;;3.73;1.47;;;;;21.10;99442.00;;;;2068288;28;20225;-68
2020/12/24 04:47:01;;;;;;;2.70;1.40;;;;;21.00;99448.00;;;;2061045;28;20214;-68
2020/12/24 04:48:01;;;;;;;2.10;1.20;;;;;21.10;99437.00;;;;2052206;28;20218;-69
2020/12/24 04:49:02;;;;;;;3.10;1.27;;;;;21.00;99449.00;;;;2056651;28;20692;-69
2020/12/24 04:50:02;;;;;;;4.13;1.30;;;;;21.00;99446.00;;;;2072228;28;20233;-68
2020/12/24 04:51:02;;;;;;;2.63;1.10;;;;;21.00;99435.00;;;;2068922;28;20244;-68
2020/12/24 04:52:03;;;;;;;4.30;1.43;;;;;21.00;99441.00;;;;2068293;28;20291;-69
2020/12/24 04:53:03;;;;;;;2.77;1.53;;;;;21.00;99441.00;;;;2068767;28;20221;-69
2020/12/24 04:54:04;;;;;;;3.33;0.90;;;;;21.00;99443.00;;;;2077197;28;20266;-68
2020/12/24 04:55:04;;;;;;;2.60;1.30;;;;;21.10;99434.00;;;;2068430;28;20220;-68
2020/12/24 04:56:06;;;;;;;2.33;0.93;;;;;21.10;99430.00;;;;2068490;28;20221;-69
2020/12/24 04:57:08;;;;;;;2.95;1.20;;;;;21.10;99435.00;;;;2081310;28;20598;-69
2020/12/24 04:58:11;;;;;;;2.97;1.30;;;;;21.00;99427.00;;;;2081308;28;20227;-69
2020/12/24 04:59:11;;;;;;;2.65;1.08;;;;;21.00;99437.00;;;;2081305;28;20216;-69
2020/12/24 05:00:12;;;;;;;2.10;0.90;;;;;21.00;99442.00;;;;2076090;28;20309;-69
2020/12/24 05:01:16;;;;;;;2.73;1.10;;;;;21.00;99437.00;;;;2078219;28;20221;-69
2020/12/24 05:02:17;;;;;;;2.35;1.23;;;;;21.00;99431.00;;;;2075616;28;20213;-69